<?xml version="1.0" encoding="utf-8"?>
<gpx xmlns:xsi="http://www.w3.org/2001/XMLSchema-instance" xmlns:xsd="http://www.w3.org/2001/XMLSchema" version="1.1" creator="Shapelink.com" xmlns="http://www.topografix.com/GPX/1/1" xmlns:gpxtpx="http://www.garmin.com/xmlschemas/TrackPointExtension/v1">
  <metadata>
    <name>Löpning 5.98 km, 2012-03-10</name>
    <desc></desc>
    <author><name>Dennis Rehn</name></author> 
    <time>2012-03-10T09:41:54Z</time>
  </metadata>
  <trk>
    <name>Löpning 5.98 km, 2012-03-10</name>
    <trkseg>
      <trkpt lat="60.0519522298" lon="23.41770141">
        <ele>41</ele>
        <time>2012-03-10T09:41:54Z</time>
      </trkpt>
      <trkpt lat="60.0520314387" lon="23.4176848976">
        <ele>41</ele>
        <time>2012-03-10T09:41:56Z</time>
      </trkpt>
      <trkpt lat="60.0522730889" lon="23.4175581633">
        <ele>41</ele>
        <time>2012-03-10T09:42:02Z</time>
      </trkpt>
      <trkpt lat="60.0524528807" lon="23.4173269067">
        <ele>41</ele>
        <time>2012-03-10T09:42:07Z</time>
      </trkpt>
      <trkpt lat="60.0526014079" lon="23.4171093125">
        <ele>41</ele>
        <time>2012-03-10T09:42:11Z</time>
      </trkpt>
      <trkpt lat="60.0526457482" lon="23.4170524833">
        <ele>41</ele>
        <time>2012-03-10T09:42:12Z</time>
      </trkpt>
      <trkpt lat="60.0528071836" lon="23.4168382419">
        <ele>40.6</ele>
        <time>2012-03-10T09:42:16Z</time>
      </trkpt>
      <trkpt lat="60.0528374423" lon="23.4167985117">
        <ele>40.6</ele>
        <time>2012-03-10T09:42:17Z</time>
      </trkpt>
      <trkpt lat="60.0529391985" lon="23.416647386">
        <ele>40</ele>
        <time>2012-03-10T09:42:20Z</time>
      </trkpt>
      <trkpt lat="60.0531562059" lon="23.4163952585">
        <ele>39.2</ele>
        <time>2012-03-10T09:42:26Z</time>
      </trkpt>
      <trkpt lat="60.0532321459" lon="23.4163254373">
        <ele>38.8</ele>
        <time>2012-03-10T09:42:28Z</time>
      </trkpt>
      <trkpt lat="60.0534547692" lon="23.4161683604">
        <ele>38</ele>
        <time>2012-03-10T09:42:33Z</time>
      </trkpt>
      <trkpt lat="60.0534890512" lon="23.4161383532">
        <ele>37.8</ele>
        <time>2012-03-10T09:42:34Z</time>
      </trkpt>
      <trkpt lat="60.0535664161" lon="23.4160521873">
        <ele>37.6</ele>
        <time>2012-03-10T09:42:36Z</time>
      </trkpt>
      <trkpt lat="60.0536616345" lon="23.4159019837">
        <ele>36.8</ele>
        <time>2012-03-10T09:42:39Z</time>
      </trkpt>
      <trkpt lat="60.0538069766" lon="23.4155155781">
        <ele>35.8</ele>
        <time>2012-03-10T09:42:45Z</time>
      </trkpt>
      <trkpt lat="60.0538678292" lon="23.4153010014">
        <ele>35.6</ele>
        <time>2012-03-10T09:42:48Z</time>
      </trkpt>
      <trkpt lat="60.0539427634" lon="23.415107631">
        <ele>34.8</ele>
        <time>2012-03-10T09:42:51Z</time>
      </trkpt>
      <trkpt lat="60.0540347967" lon="23.4148129234">
        <ele>34</ele>
        <time>2012-03-10T09:42:55Z</time>
      </trkpt>
      <trkpt lat="60.0540691625" lon="23.414656601">
        <ele>33.8</ele>
        <time>2012-03-10T09:42:57Z</time>
      </trkpt>
      <trkpt lat="60.0540931347" lon="23.4144826765">
        <ele>33.6</ele>
        <time>2012-03-10T09:42:59Z</time>
      </trkpt>
      <trkpt lat="60.0541450187" lon="23.414062911">
        <ele>33</ele>
        <time>2012-03-10T09:43:04Z</time>
      </trkpt>
      <trkpt lat="60.0541639617" lon="23.4139856299">
        <ele>32.8</ele>
        <time>2012-03-10T09:43:05Z</time>
      </trkpt>
      <trkpt lat="60.0542631196" lon="23.4136425587">
        <ele>31.8</ele>
        <time>2012-03-10T09:43:10Z</time>
      </trkpt>
      <trkpt lat="60.0543171829" lon="23.4135358571">
        <ele>31.6</ele>
        <time>2012-03-10T09:43:12Z</time>
      </trkpt>
      <trkpt lat="60.054383819" lon="23.4134366154">
        <ele>31.4</ele>
        <time>2012-03-10T09:43:14Z</time>
      </trkpt>
      <trkpt lat="60.0545142413" lon="23.4132204462">
        <ele>31.2</ele>
        <time>2012-03-10T09:43:18Z</time>
      </trkpt>
      <trkpt lat="60.0545501159" lon="23.4131780338">
        <ele>31</ele>
        <time>2012-03-10T09:43:19Z</time>
      </trkpt>
      <trkpt lat="60.0546530456" lon="23.4130395648">
        <ele>31</ele>
        <time>2012-03-10T09:43:22Z</time>
      </trkpt>
      <trkpt lat="60.0547126409" lon="23.4129223859">
        <ele>30.8</ele>
        <time>2012-03-10T09:43:24Z</time>
      </trkpt>
      <trkpt lat="60.0548278082" lon="23.412615273">
        <ele>30.8</ele>
        <time>2012-03-10T09:43:29Z</time>
      </trkpt>
      <trkpt lat="60.0548812847" lon="23.4124234952">
        <ele>30.6</ele>
        <time>2012-03-10T09:43:32Z</time>
      </trkpt>
      <trkpt lat="60.0550175744" lon="23.4120922425">
        <ele>30.6</ele>
        <time>2012-03-10T09:43:39Z</time>
      </trkpt>
      <trkpt lat="60.0551288023" lon="23.4118982015">
        <ele>30.6</ele>
        <time>2012-03-10T09:43:43Z</time>
      </trkpt>
      <trkpt lat="60.0552631641" lon="23.4116163182">
        <ele>30.6</ele>
        <time>2012-03-10T09:43:48Z</time>
      </trkpt>
      <trkpt lat="60.055331309" lon="23.4113966286">
        <ele>30.8</ele>
        <time>2012-03-10T09:43:51Z</time>
      </trkpt>
      <trkpt lat="60.0554031418" lon="23.411069986">
        <ele>31.4</ele>
        <time>2012-03-10T09:43:55Z</time>
      </trkpt>
      <trkpt lat="60.055423929" lon="23.410809728">
        <ele>31.8</ele>
        <time>2012-03-10T09:43:58Z</time>
      </trkpt>
      <trkpt lat="60.0554393516" lon="23.4104851808">
        <ele>32</ele>
        <time>2012-03-10T09:44:02Z</time>
      </trkpt>
      <trkpt lat="60.0554458057" lon="23.410409576">
        <ele>32</ele>
        <time>2012-03-10T09:44:03Z</time>
      </trkpt>
      <trkpt lat="60.0554541038" lon="23.4102497332">
        <ele>32.2</ele>
        <time>2012-03-10T09:44:05Z</time>
      </trkpt>
      <trkpt lat="60.0554681016" lon="23.4099013815">
        <ele>32.4</ele>
        <time>2012-03-10T09:44:10Z</time>
      </trkpt>
      <trkpt lat="60.0554766511" lon="23.4095982081">
        <ele>32.4</ele>
        <time>2012-03-10T09:44:14Z</time>
      </trkpt>
      <trkpt lat="60.0555130286" lon="23.4092351042">
        <ele>32.4</ele>
        <time>2012-03-10T09:44:19Z</time>
      </trkpt>
      <trkpt lat="60.0555584584" lon="23.4088684799">
        <ele>33</ele>
        <time>2012-03-10T09:44:24Z</time>
      </trkpt>
      <trkpt lat="60.0556027987" lon="23.4085054598">
        <ele>33.6</ele>
        <time>2012-03-10T09:44:29Z</time>
      </trkpt>
      <trkpt lat="60.0556542636" lon="23.4081475527">
        <ele>34</ele>
        <time>2012-03-10T09:44:34Z</time>
      </trkpt>
      <trkpt lat="60.0557008669" lon="23.4078527613">
        <ele>34.8</ele>
        <time>2012-03-10T09:44:38Z</time>
      </trkpt>
      <trkpt lat="60.0557808303" lon="23.4075152222">
        <ele>35.6</ele>
        <time>2012-03-10T09:44:43Z</time>
      </trkpt>
      <trkpt lat="60.055878647" lon="23.4072032478">
        <ele>36</ele>
        <time>2012-03-10T09:44:48Z</time>
      </trkpt>
      <trkpt lat="60.0559862706" lon="23.406910971">
        <ele>36.4</ele>
        <time>2012-03-10T09:44:53Z</time>
      </trkpt>
      <trkpt lat="60.0560612048" lon="23.4066846597">
        <ele>36.4</ele>
        <time>2012-03-10T09:44:57Z</time>
      </trkpt>
      <trkpt lat="60.0561632125" lon="23.4064672332">
        <ele>36.6</ele>
        <time>2012-03-10T09:45:01Z</time>
      </trkpt>
      <trkpt lat="60.056213923" lon="23.4062819094">
        <ele>36.6</ele>
        <time>2012-03-10T09:45:04Z</time>
      </trkpt>
      <trkpt lat="60.0563219657" lon="23.4059493994">
        <ele>36.6</ele>
        <time>2012-03-10T09:45:09Z</time>
      </trkpt>
      <trkpt lat="60.0564263204" lon="23.4056654206">
        <ele>36.6</ele>
        <time>2012-03-10T09:45:13Z</time>
      </trkpt>
      <trkpt lat="60.0564517175" lon="23.4055958509">
        <ele>36.6</ele>
        <time>2012-03-10T09:45:14Z</time>
      </trkpt>
      <trkpt lat="60.0565977302" lon="23.4052094453">
        <ele>37.2</ele>
        <time>2012-03-10T09:45:20Z</time>
      </trkpt>
      <trkpt lat="60.0566257258" lon="23.4051573937">
        <ele>37.4</ele>
        <time>2012-03-10T09:45:21Z</time>
      </trkpt>
      <trkpt lat="60.0567463413" lon="23.4049662864">
        <ele>37.8</ele>
        <time>2012-03-10T09:45:25Z</time>
      </trkpt>
      <trkpt lat="60.0569111295" lon="23.4048451679">
        <ele>38.2</ele>
        <time>2012-03-10T09:45:30Z</time>
      </trkpt>
      <trkpt lat="60.057053035" lon="23.4047656237">
        <ele>38.4</ele>
        <time>2012-03-10T09:45:34Z</time>
      </trkpt>
      <trkpt lat="60.0571837927" lon="23.4046752668">
        <ele>39</ele>
        <time>2012-03-10T09:45:38Z</time>
      </trkpt>
      <trkpt lat="60.0572914163" lon="23.4045217104">
        <ele>39.6</ele>
        <time>2012-03-10T09:45:42Z</time>
      </trkpt>
      <trkpt lat="60.0574407817" lon="23.4042565071">
        <ele>41.2</ele>
        <time>2012-03-10T09:45:48Z</time>
      </trkpt>
      <trkpt lat="60.0574779974" lon="23.4041585227">
        <ele>41.6</ele>
        <time>2012-03-10T09:45:50Z</time>
      </trkpt>
      <trkpt lat="60.0576331463" lon="23.4038809141">
        <ele>43.2</ele>
        <time>2012-03-10T09:45:56Z</time>
      </trkpt>
      <trkpt lat="60.0577660833" lon="23.4036421138">
        <ele>44</ele>
        <time>2012-03-10T09:46:01Z</time>
      </trkpt>
      <trkpt lat="60.057911174" lon="23.4034124497">
        <ele>44.6</ele>
        <time>2012-03-10T09:46:06Z</time>
      </trkpt>
      <trkpt lat="60.0580331306" lon="23.4031709672">
        <ele>44.8</ele>
        <time>2012-03-10T09:46:11Z</time>
      </trkpt>
      <trkpt lat="60.0581275108" lon="23.4029320831">
        <ele>45</ele>
        <time>2012-03-10T09:46:15Z</time>
      </trkpt>
      <trkpt lat="60.0582612021" lon="23.4026402253">
        <ele>45.2</ele>
        <time>2012-03-10T09:46:20Z</time>
      </trkpt>
      <trkpt lat="60.0584611104" lon="23.4022938014">
        <ele>46.2</ele>
        <time>2012-03-10T09:46:27Z</time>
      </trkpt>
      <trkpt lat="60.0584953086" lon="23.4022602738">
        <ele>46.4</ele>
        <time>2012-03-10T09:46:28Z</time>
      </trkpt>
      <trkpt lat="60.0586938758" lon="23.4021151831">
        <ele>46.8</ele>
        <time>2012-03-10T09:46:33Z</time>
      </trkpt>
      <trkpt lat="60.0588796187" lon="23.4020098226">
        <ele>47.2</ele>
        <time>2012-03-10T09:46:38Z</time>
      </trkpt>
      <trkpt lat="60.0590382881" lon="23.4019358104">
        <ele>48</ele>
        <time>2012-03-10T09:46:42Z</time>
      </trkpt>
      <trkpt lat="60.0592380287" lon="23.4018685876">
        <ele>48.6</ele>
        <time>2012-03-10T09:46:47Z</time>
      </trkpt>
      <trkpt lat="60.059275412" lon="23.4018509856">
        <ele>48.8</ele>
        <time>2012-03-10T09:46:48Z</time>
      </trkpt>
      <trkpt lat="60.0594585565" lon="23.4017378299">
        <ele>49</ele>
        <time>2012-03-10T09:46:53Z</time>
      </trkpt>
      <trkpt lat="60.0596459758" lon="23.4016658294">
        <ele>49.2</ele>
        <time>2012-03-10T09:46:58Z</time>
      </trkpt>
      <trkpt lat="60.0598346524" lon="23.4015840221">
        <ele>49.4</ele>
        <time>2012-03-10T09:47:03Z</time>
      </trkpt>
      <trkpt lat="60.0600322138" lon="23.4014997002">
        <ele>49.4</ele>
        <time>2012-03-10T09:47:08Z</time>
      </trkpt>
      <trkpt lat="60.0602214771" lon="23.4013697807">
        <ele>49.4</ele>
        <time>2012-03-10T09:47:13Z</time>
      </trkpt>
      <trkpt lat="60.0602595309" lon="23.4013360017">
        <ele>49.4</ele>
        <time>2012-03-10T09:47:14Z</time>
      </trkpt>
      <trkpt lat="60.0604273365" lon="23.401104745">
        <ele>49.2</ele>
        <time>2012-03-10T09:47:19Z</time>
      </trkpt>
      <trkpt lat="60.0605015163" lon="23.4008863965">
        <ele>48.8</ele>
        <time>2012-03-10T09:47:22Z</time>
      </trkpt>
      <trkpt lat="60.0606435057" lon="23.4005273159">
        <ele>47.6</ele>
        <time>2012-03-10T09:47:27Z</time>
      </trkpt>
      <trkpt lat="60.0606751055" lon="23.4004677206">
        <ele>47.4</ele>
        <time>2012-03-10T09:47:28Z</time>
      </trkpt>
      <trkpt lat="60.0607538115" lon="23.400355487">
        <ele>46.6</ele>
        <time>2012-03-10T09:47:30Z</time>
      </trkpt>
      <trkpt lat="60.0609743393" lon="23.4001578418">
        <ele>45</ele>
        <time>2012-03-10T09:47:35Z</time>
      </trkpt>
      <trkpt lat="60.0611773489" lon="23.4000133378">
        <ele>43.2</ele>
        <time>2012-03-10T09:47:40Z</time>
      </trkpt>
      <trkpt lat="60.0613780116" lon="23.3998545008">
        <ele>41.4</ele>
        <time>2012-03-10T09:47:45Z</time>
      </trkpt>
      <trkpt lat="60.0615635869" lon="23.3996789">
        <ele>39.8</ele>
        <time>2012-03-10T09:47:50Z</time>
      </trkpt>
      <trkpt lat="60.0617470667" lon="23.3995011199">
        <ele>38.6</ele>
        <time>2012-03-10T09:47:55Z</time>
      </trkpt>
      <trkpt lat="60.0619200691" lon="23.3993271955">
        <ele>37.8</ele>
        <time>2012-03-10T09:48:00Z</time>
      </trkpt>
      <trkpt lat="60.062083097" lon="23.3991586355">
        <ele>37.4</ele>
        <time>2012-03-10T09:48:05Z</time>
      </trkpt>
      <trkpt lat="60.0622535011" lon="23.3989959428">
        <ele>37.2</ele>
        <time>2012-03-10T09:48:10Z</time>
      </trkpt>
      <trkpt lat="60.0624247433" lon="23.3988402909">
        <ele>37</ele>
        <time>2012-03-10T09:48:15Z</time>
      </trkpt>
      <trkpt lat="60.0626016014" lon="23.3987213518">
        <ele>36.4</ele>
        <time>2012-03-10T09:48:20Z</time>
      </trkpt>
      <trkpt lat="60.0628059521" lon="23.3986168295">
        <ele>35.8</ele>
        <time>2012-03-10T09:48:25Z</time>
      </trkpt>
      <trkpt lat="60.0630253064" lon="23.3985414762">
        <ele>35</ele>
        <time>2012-03-10T09:48:30Z</time>
      </trkpt>
      <trkpt lat="60.0632114684" lon="23.3984845631">
        <ele>34.2</ele>
        <time>2012-03-10T09:48:34Z</time>
      </trkpt>
      <trkpt lat="60.0634059285" lon="23.3984254707">
        <ele>33.6</ele>
        <time>2012-03-10T09:48:38Z</time>
      </trkpt>
      <trkpt lat="60.0634484247" lon="23.3984096289">
        <ele>33.2</ele>
        <time>2012-03-10T09:48:39Z</time>
      </trkpt>
      <trkpt lat="60.0636645101" lon="23.3983398915">
        <ele>32</ele>
        <time>2012-03-10T09:48:44Z</time>
      </trkpt>
      <trkpt lat="60.0638867981" lon="23.398274848">
        <ele>31.2</ele>
        <time>2012-03-10T09:48:49Z</time>
      </trkpt>
      <trkpt lat="60.0640530112" lon="23.3982216229">
        <ele>30.2</ele>
        <time>2012-03-10T09:48:53Z</time>
      </trkpt>
      <trkpt lat="60.0642549312" lon="23.3981531428">
        <ele>29.4</ele>
        <time>2012-03-10T09:48:58Z</time>
      </trkpt>
      <trkpt lat="60.0644931448" lon="23.3980781248">
        <ele>29</ele>
        <time>2012-03-10T09:49:04Z</time>
      </trkpt>
      <trkpt lat="60.0646885268" lon="23.3980241453">
        <ele>28.4</ele>
        <time>2012-03-10T09:49:09Z</time>
      </trkpt>
      <trkpt lat="60.0648812267" lon="23.3979737701">
        <ele>27.6</ele>
        <time>2012-03-10T09:49:14Z</time>
      </trkpt>
      <trkpt lat="60.0650661314" lon="23.3979311901">
        <ele>27.2</ele>
        <time>2012-03-10T09:49:19Z</time>
      </trkpt>
      <trkpt lat="60.0652055224" lon="23.3978814016">
        <ele>26.8</ele>
        <time>2012-03-10T09:49:23Z</time>
      </trkpt>
      <trkpt lat="60.0652375413" lon="23.3978710918">
        <ele>26.6</ele>
        <time>2012-03-10T09:49:24Z</time>
      </trkpt>
      <trkpt lat="60.0654277266" lon="23.3978239856">
        <ele>25.6</ele>
        <time>2012-03-10T09:49:29Z</time>
      </trkpt>
      <trkpt lat="60.0656066802" lon="23.3977829981">
        <ele>25</ele>
        <time>2012-03-10T09:49:34Z</time>
      </trkpt>
      <trkpt lat="60.0657997153" lon="23.3977050464">
        <ele>24.8</ele>
        <time>2012-03-10T09:49:40Z</time>
      </trkpt>
      <trkpt lat="60.0659112784" lon="23.3976612091">
        <ele>24.6</ele>
        <time>2012-03-10T09:49:44Z</time>
      </trkpt>
      <trkpt lat="60.066031894" lon="23.3975905496">
        <ele>24.4</ele>
        <time>2012-03-10T09:49:49Z</time>
      </trkpt>
      <trkpt lat="60.0661683513" lon="23.3974578642">
        <ele>24.4</ele>
        <time>2012-03-10T09:49:55Z</time>
      </trkpt>
      <trkpt lat="60.0663034675" lon="23.3972806708">
        <ele>24.4</ele>
        <time>2012-03-10T09:50:01Z</time>
      </trkpt>
      <trkpt lat="60.0664010328" lon="23.3971359992">
        <ele>24.4</ele>
        <time>2012-03-10T09:50:06Z</time>
      </trkpt>
      <trkpt lat="60.0665030406" lon="23.3970119471">
        <ele>24.2</ele>
        <time>2012-03-10T09:50:11Z</time>
      </trkpt>
      <trkpt lat="60.0665797349" lon="23.396920752">
        <ele>24.2</ele>
        <time>2012-03-10T09:50:15Z</time>
      </trkpt>
      <trkpt lat="60.0667133424" lon="23.3967780921">
        <ele>24.2</ele>
        <time>2012-03-10T09:50:20Z</time>
      </trkpt>
      <trkpt lat="60.0668529849" lon="23.3965838835">
        <ele>24.4</ele>
        <time>2012-03-10T09:50:26Z</time>
      </trkpt>
      <trkpt lat="60.0669637098" lon="23.3963403893">
        <ele>25.2</ele>
        <time>2012-03-10T09:50:31Z</time>
      </trkpt>
      <trkpt lat="60.0670818107" lon="23.3960722523">
        <ele>26.2</ele>
        <time>2012-03-10T09:50:36Z</time>
      </trkpt>
      <trkpt lat="60.0672431623" lon="23.3958444322">
        <ele>27.2</ele>
        <time>2012-03-10T09:50:41Z</time>
      </trkpt>
      <trkpt lat="60.0674269774" lon="23.395703281">
        <ele>27.8</ele>
        <time>2012-03-10T09:50:46Z</time>
      </trkpt>
      <trkpt lat="60.0675937772" lon="23.3956000999">
        <ele>28</ele>
        <time>2012-03-10T09:50:50Z</time>
      </trkpt>
      <trkpt lat="60.0676413026" lon="23.3955698412">
        <ele>28</ele>
        <time>2012-03-10T09:50:51Z</time>
      </trkpt>
      <trkpt lat="60.0678160652" lon="23.3954396703">
        <ele>28.2</ele>
        <time>2012-03-10T09:50:55Z</time>
      </trkpt>
      <trkpt lat="60.0678521912" lon="23.3954075676">
        <ele>28.2</ele>
        <time>2012-03-10T09:50:56Z</time>
      </trkpt>
      <trkpt lat="60.0679539474" lon="23.3953070686">
        <ele>28.4</ele>
        <time>2012-03-10T09:50:59Z</time>
      </trkpt>
      <trkpt lat="60.0681521794" lon="23.3951312164">
        <ele>28.4</ele>
        <time>2012-03-10T09:51:05Z</time>
      </trkpt>
      <trkpt lat="60.0683141177" lon="23.3949597227">
        <ele>28.4</ele>
        <time>2012-03-10T09:51:10Z</time>
      </trkpt>
      <trkpt lat="60.068488545" lon="23.3947711299">
        <ele>28.4</ele>
        <time>2012-03-10T09:51:15Z</time>
      </trkpt>
      <trkpt lat="60.0686918061" lon="23.3945346765">
        <ele>28.4</ele>
        <time>2012-03-10T09:51:21Z</time>
      </trkpt>
      <trkpt lat="60.0688607852" lon="23.3943105445">
        <ele>27.4</ele>
        <time>2012-03-10T09:51:26Z</time>
      </trkpt>
      <trkpt lat="60.0690282556" lon="23.3941053556">
        <ele>27</ele>
        <time>2012-03-10T09:51:31Z</time>
      </trkpt>
      <trkpt lat="60.0691929599" lon="23.3939196965">
        <ele>26.8</ele>
        <time>2012-03-10T09:51:36Z</time>
      </trkpt>
      <trkpt lat="60.0693479412" lon="23.3937318582">
        <ele>26.4</ele>
        <time>2012-03-10T09:51:41Z</time>
      </trkpt>
      <trkpt lat="60.0694937025" lon="23.3936349634">
        <ele>25.6</ele>
        <time>2012-03-10T09:51:46Z</time>
      </trkpt>
      <trkpt lat="60.0696169164" lon="23.3936052915">
        <ele>25.2</ele>
        <time>2012-03-10T09:51:51Z</time>
      </trkpt>
      <trkpt lat="60.0697459977" lon="23.393664803">
        <ele>24.8</ele>
        <time>2012-03-10T09:51:57Z</time>
      </trkpt>
      <trkpt lat="60.0698915074" lon="23.3937761146">
        <ele>25.6</ele>
        <time>2012-03-10T09:52:03Z</time>
      </trkpt>
      <trkpt lat="60.0701309783" lon="23.3936873503">
        <ele>26.2</ele>
        <time>2012-03-10T09:52:10Z</time>
      </trkpt>
      <trkpt lat="60.070275147" lon="23.3935196285">
        <ele>26.4</ele>
        <time>2012-03-10T09:52:15Z</time>
      </trkpt>
      <trkpt lat="60.0703998697" lon="23.3934107476">
        <ele>26.4</ele>
        <time>2012-03-10T09:52:19Z</time>
      </trkpt>
      <trkpt lat="60.0705587067" lon="23.3933430218">
        <ele>26.4</ele>
        <time>2012-03-10T09:52:23Z</time>
      </trkpt>
      <trkpt lat="60.0707455392" lon="23.3933450335">
        <ele>26.6</ele>
        <time>2012-03-10T09:52:27Z</time>
      </trkpt>
      <trkpt lat="60.0707877002" lon="23.3933491406">
        <ele>26.6</ele>
        <time>2012-03-10T09:52:28Z</time>
      </trkpt>
      <trkpt lat="60.070900772" lon="23.393352661">
        <ele>26.6</ele>
        <time>2012-03-10T09:52:31Z</time>
      </trkpt>
      <trkpt lat="60.0710247403" lon="23.3934333787">
        <ele>26.6</ele>
        <time>2012-03-10T09:52:34Z</time>
      </trkpt>
      <trkpt lat="60.0711029435" lon="23.3934796468">
        <ele>26.6</ele>
        <time>2012-03-10T09:52:36Z</time>
      </trkpt>
      <trkpt lat="60.0712372215" lon="23.3936368912">
        <ele>26.6</ele>
        <time>2012-03-10T09:52:40Z</time>
      </trkpt>
      <trkpt lat="60.0713346192" lon="23.3937813114">
        <ele>26.6</ele>
        <time>2012-03-10T09:52:43Z</time>
      </trkpt>
      <trkpt lat="60.0714902711" lon="23.3941163359">
        <ele>26.6</ele>
        <time>2012-03-10T09:52:49Z</time>
      </trkpt>
      <trkpt lat="60.0715338569" lon="23.3943063536">
        <ele>26.6</ele>
        <time>2012-03-10T09:52:52Z</time>
      </trkpt>
      <trkpt lat="60.0716455038" lon="23.3947036556">
        <ele>26.6</ele>
        <time>2012-03-10T09:52:58Z</time>
      </trkpt>
      <trkpt lat="60.0717625152" lon="23.3950370876">
        <ele>26.6</ele>
        <time>2012-03-10T09:53:04Z</time>
      </trkpt>
      <trkpt lat="60.0717864036" lon="23.3951015444">
        <ele>26.6</ele>
        <time>2012-03-10T09:53:06Z</time>
      </trkpt>
      <trkpt lat="60.0719205978" lon="23.3952687633">
        <ele>26.6</ele>
        <time>2012-03-10T09:53:11Z</time>
      </trkpt>
      <trkpt lat="60.0721171534" lon="23.3954327971">
        <ele>26.6</ele>
        <time>2012-03-10T09:53:17Z</time>
      </trkpt>
      <trkpt lat="60.0722977833" lon="23.3955038756">
        <ele>26.6</ele>
        <time>2012-03-10T09:53:22Z</time>
      </trkpt>
      <trkpt lat="60.0724772398" lon="23.3955226511">
        <ele>26.6</ele>
        <time>2012-03-10T09:53:27Z</time>
      </trkpt>
      <trkpt lat="60.0726709455" lon="23.3955145207">
        <ele>26.2</ele>
        <time>2012-03-10T09:53:32Z</time>
      </trkpt>
      <trkpt lat="60.0728722787" lon="23.3955100782">
        <ele>25.6</ele>
        <time>2012-03-10T09:53:37Z</time>
      </trkpt>
      <trkpt lat="60.0729117575" lon="23.3955151912">
        <ele>25.4</ele>
        <time>2012-03-10T09:53:38Z</time>
      </trkpt>
      <trkpt lat="60.0729104164" lon="23.3955951545">
        <ele>25.2</ele>
        <time>2012-03-10T09:53:41Z</time>
      </trkpt>
      <trkpt lat="60.0728379968" lon="23.3955953222">
        <ele>25</ele>
        <time>2012-03-10T09:53:43Z</time>
      </trkpt>
      <trkpt lat="60.0728017031" lon="23.3955956574">
        <ele>25</ele>
        <time>2012-03-10T09:53:44Z</time>
      </trkpt>
      <trkpt lat="60.0725666747" lon="23.3956122536">
        <ele>24.8</ele>
        <time>2012-03-10T09:53:50Z</time>
      </trkpt>
      <trkpt lat="60.072366012" lon="23.3956476252">
        <ele>24.6</ele>
        <time>2012-03-10T09:53:55Z</time>
      </trkpt>
      <trkpt lat="60.0722776667" lon="23.3956639699">
        <ele>24.6</ele>
        <time>2012-03-10T09:53:57Z</time>
      </trkpt>
      <trkpt lat="60.072187226" lon="23.3956539117">
        <ele>24.6</ele>
        <time>2012-03-10T09:53:59Z</time>
      </trkpt>
      <trkpt lat="60.0720257068" lon="23.3955535803">
        <ele>24.6</ele>
        <time>2012-03-10T09:54:03Z</time>
      </trkpt>
      <trkpt lat="60.071876509" lon="23.3953960844">
        <ele>24.6</ele>
        <time>2012-03-10T09:54:07Z</time>
      </trkpt>
      <trkpt lat="60.0718081965" lon="23.3953245868">
        <ele>24.6</ele>
        <time>2012-03-10T09:54:09Z</time>
      </trkpt>
      <trkpt lat="60.0717455837" lon="23.3952407678">
        <ele>24.6</ele>
        <time>2012-03-10T09:54:11Z</time>
      </trkpt>
      <trkpt lat="60.0715973917" lon="23.3949203278">
        <ele>24.6</ele>
        <time>2012-03-10T09:54:16Z</time>
      </trkpt>
      <trkpt lat="60.0715839807" lon="23.3948754846">
        <ele>24.6</ele>
        <time>2012-03-10T09:54:17Z</time>
      </trkpt>
      <trkpt lat="60.0715082083" lon="23.3945545416">
        <ele>24.6</ele>
        <time>2012-03-10T09:54:21Z</time>
      </trkpt>
      <trkpt lat="60.0713097249" lon="23.3939969777">
        <ele>24.6</ele>
        <time>2012-03-10T09:54:30Z</time>
      </trkpt>
      <trkpt lat="60.0712784604" lon="23.3939531403">
        <ele>24.6</ele>
        <time>2012-03-10T09:54:31Z</time>
      </trkpt>
      <trkpt lat="60.0712185299" lon="23.3938626158">
        <ele>24.6</ele>
        <time>2012-03-10T09:54:33Z</time>
      </trkpt>
      <trkpt lat="60.0710431805" lon="23.3936737716">
        <ele>24.6</ele>
        <time>2012-03-10T09:54:39Z</time>
      </trkpt>
      <trkpt lat="60.0708683341" lon="23.3935724344">
        <ele>24.6</ele>
        <time>2012-03-10T09:54:44Z</time>
      </trkpt>
      <trkpt lat="60.0707001093" lon="23.3935169462">
        <ele>24.6</ele>
        <time>2012-03-10T09:54:49Z</time>
      </trkpt>
      <trkpt lat="60.0705505762" lon="23.3935301896">
        <ele>24.6</ele>
        <time>2012-03-10T09:54:54Z</time>
      </trkpt>
      <trkpt lat="60.0704350737" lon="23.3935778827">
        <ele>24.6</ele>
        <time>2012-03-10T09:54:59Z</time>
      </trkpt>
      <trkpt lat="60.0703342394" lon="23.3936326165">
        <ele>25</ele>
        <time>2012-03-10T09:55:03Z</time>
      </trkpt>
      <trkpt lat="60.0702023921" lon="23.3937568362">
        <ele>25.6</ele>
        <time>2012-03-10T09:55:09Z</time>
      </trkpt>
      <trkpt lat="60.0700319043" lon="23.393893545">
        <ele>26</ele>
        <time>2012-03-10T09:55:15Z</time>
      </trkpt>
      <trkpt lat="60.069874576" lon="23.3938772841">
        <ele>27</ele>
        <time>2012-03-10T09:55:20Z</time>
      </trkpt>
      <trkpt lat="60.0696612567" lon="23.3937588479">
        <ele>27.8</ele>
        <time>2012-03-10T09:55:26Z</time>
      </trkpt>
      <trkpt lat="60.0695327621" lon="23.3937492925">
        <ele>28</ele>
        <time>2012-03-10T09:55:29Z</time>
      </trkpt>
      <trkpt lat="60.0694437464" lon="23.3937879331">
        <ele>28.2</ele>
        <time>2012-03-10T09:55:31Z</time>
      </trkpt>
      <trkpt lat="60.0693181855" lon="23.3938746019">
        <ele>28.4</ele>
        <time>2012-03-10T09:55:34Z</time>
      </trkpt>
      <trkpt lat="60.0691753579" lon="23.3940297509">
        <ele>28.4</ele>
        <time>2012-03-10T09:55:38Z</time>
      </trkpt>
      <trkpt lat="60.0690483721" lon="23.3941957125">
        <ele>28.2</ele>
        <time>2012-03-10T09:55:42Z</time>
      </trkpt>
      <trkpt lat="60.0688772137" lon="23.3944489297">
        <ele>27.4</ele>
        <time>2012-03-10T09:55:48Z</time>
      </trkpt>
      <trkpt lat="60.0686966676" lon="23.3946821142">
        <ele>26.6</ele>
        <time>2012-03-10T09:55:54Z</time>
      </trkpt>
      <trkpt lat="60.0685436979" lon="23.3948847885">
        <ele>25.8</ele>
        <time>2012-03-10T09:55:59Z</time>
      </trkpt>
      <trkpt lat="60.0683892195" lon="23.3950571204">
        <ele>25.2</ele>
        <time>2012-03-10T09:56:04Z</time>
      </trkpt>
      <trkpt lat="60.0682165524" lon="23.3952526701">
        <ele>25</ele>
        <time>2012-03-10T09:56:10Z</time>
      </trkpt>
      <trkpt lat="60.0680536082" lon="23.395421733">
        <ele>24.8</ele>
        <time>2012-03-10T09:56:15Z</time>
      </trkpt>
      <trkpt lat="60.0678662728" lon="23.3955861859">
        <ele>24.8</ele>
        <time>2012-03-10T09:56:20Z</time>
      </trkpt>
      <trkpt lat="60.0677019875" lon="23.3957038678">
        <ele>24.6</ele>
        <time>2012-03-10T09:56:25Z</time>
      </trkpt>
      <trkpt lat="60.0675783545" lon="23.3957945599">
        <ele>24.6</ele>
        <time>2012-03-10T09:56:30Z</time>
      </trkpt>
      <trkpt lat="60.0674970501" lon="23.3958612799">
        <ele>24.6</ele>
        <time>2012-03-10T09:56:34Z</time>
      </trkpt>
      <trkpt lat="60.0673750934" lon="23.3959508824">
        <ele>24.8</ele>
        <time>2012-03-10T09:56:39Z</time>
      </trkpt>
      <trkpt lat="60.0672854909" lon="23.3960076278">
        <ele>25.4</ele>
        <time>2012-03-10T09:56:43Z</time>
      </trkpt>
      <trkpt lat="60.0672043541" lon="23.3961024271">
        <ele>25.8</ele>
        <time>2012-03-10T09:56:47Z</time>
      </trkpt>
      <trkpt lat="60.0671017597" lon="23.3962558159">
        <ele>26.8</ele>
        <time>2012-03-10T09:56:52Z</time>
      </trkpt>
      <trkpt lat="60.0670022665" lon="23.3964562271">
        <ele>27.6</ele>
        <time>2012-03-10T09:56:57Z</time>
      </trkpt>
      <trkpt lat="60.0668814833" lon="23.3966818679">
        <ele>28.6</ele>
        <time>2012-03-10T09:57:02Z</time>
      </trkpt>
      <trkpt lat="60.0667711775" lon="23.396853613">
        <ele>29.2</ele>
        <time>2012-03-10T09:57:06Z</time>
      </trkpt>
      <trkpt lat="60.066618627" lon="23.3970225921">
        <ele>29.8</ele>
        <time>2012-03-10T09:57:11Z</time>
      </trkpt>
      <trkpt lat="60.0664365721" lon="23.3972126936">
        <ele>30.2</ele>
        <time>2012-03-10T09:57:16Z</time>
      </trkpt>
      <trkpt lat="60.0663553515" lon="23.397321323">
        <ele>30.2</ele>
        <time>2012-03-10T09:57:18Z</time>
      </trkpt>
      <trkpt lat="60.0661660882" lon="23.3975235783">
        <ele>30.4</ele>
        <time>2012-03-10T09:57:23Z</time>
      </trkpt>
      <trkpt lat="60.0660992844" lon="23.397578815">
        <ele>30.4</ele>
        <time>2012-03-10T09:57:25Z</time>
      </trkpt>
      <trkpt lat="60.0659157208" lon="23.3977421782">
        <ele>30.2</ele>
        <time>2012-03-10T09:57:30Z</time>
      </trkpt>
      <trkpt lat="60.0657867234" lon="23.3978213872">
        <ele>29.8</ele>
        <time>2012-03-10T09:57:33Z</time>
      </trkpt>
      <trkpt lat="60.0655316622" lon="23.3979363868">
        <ele>28.8</ele>
        <time>2012-03-10T09:57:39Z</time>
      </trkpt>
      <trkpt lat="60.0654911776" lon="23.3979510552">
        <ele>28.6</ele>
        <time>2012-03-10T09:57:40Z</time>
      </trkpt>
      <trkpt lat="60.0654478432" lon="23.3979614487">
        <ele>28.4</ele>
        <time>2012-03-10T09:57:41Z</time>
      </trkpt>
      <trkpt lat="60.0652118927" lon="23.3980391489">
        <ele>26.8</ele>
        <time>2012-03-10T09:57:47Z</time>
      </trkpt>
      <trkpt lat="60.0650284129" lon="23.398087261">
        <ele>25.8</ele>
        <time>2012-03-10T09:57:52Z</time>
      </trkpt>
      <trkpt lat="60.0648801371" lon="23.3981217106">
        <ele>24.6</ele>
        <time>2012-03-10T09:57:56Z</time>
      </trkpt>
      <trkpt lat="60.0648483697" lon="23.3981310984">
        <ele>24.4</ele>
        <time>2012-03-10T09:57:57Z</time>
      </trkpt>
      <trkpt lat="60.0646602798" lon="23.398178037">
        <ele>23.4</ele>
        <time>2012-03-10T09:58:02Z</time>
      </trkpt>
      <trkpt lat="60.0643623033" lon="23.3982573298">
        <ele>21.8</ele>
        <time>2012-03-10T09:58:10Z</time>
      </trkpt>
      <trkpt lat="60.0643271831" lon="23.398273926">
        <ele>21.6</ele>
        <time>2012-03-10T09:58:11Z</time>
      </trkpt>
      <trkpt lat="60.064143871" lon="23.3983284921">
        <ele>21.2</ele>
        <time>2012-03-10T09:58:16Z</time>
      </trkpt>
      <trkpt lat="60.0639589663" lon="23.3983888418">
        <ele>20.8</ele>
        <time>2012-03-10T09:58:21Z</time>
      </trkpt>
      <trkpt lat="60.0637523524" lon="23.3984509517">
        <ele>20.4</ele>
        <time>2012-03-10T09:58:27Z</time>
      </trkpt>
      <trkpt lat="60.0635572218" lon="23.3985088706">
        <ele>20.2</ele>
        <time>2012-03-10T09:58:33Z</time>
      </trkpt>
      <trkpt lat="60.0633606662" lon="23.3985722378">
        <ele>20.2</ele>
        <time>2012-03-10T09:58:39Z</time>
      </trkpt>
      <trkpt lat="60.0631617638" lon="23.3986268039">
        <ele>20.8</ele>
        <time>2012-03-10T09:58:45Z</time>
      </trkpt>
      <trkpt lat="60.0629754341" lon="23.3986858125">
        <ele>21.4</ele>
        <time>2012-03-10T09:58:51Z</time>
      </trkpt>
      <trkpt lat="60.0627730951" lon="23.3987690448">
        <ele>22.8</ele>
        <time>2012-03-10T09:58:58Z</time>
      </trkpt>
      <trkpt lat="60.0624340472" lon="23.3989480822">
        <ele>24.8</ele>
        <time>2012-03-10T09:59:10Z</time>
      </trkpt>
      <trkpt lat="60.0622726118" lon="23.3990753194">
        <ele>26</ele>
        <time>2012-03-10T09:59:16Z</time>
      </trkpt>
      <trkpt lat="60.0621292813" lon="23.3992112738">
        <ele>27</ele>
        <time>2012-03-10T09:59:21Z</time>
      </trkpt>
      <trkpt lat="60.0619405209" lon="23.399386707">
        <ele>27.8</ele>
        <time>2012-03-10T09:59:27Z</time>
      </trkpt>
      <trkpt lat="60.0617537722" lon="23.3995820891">
        <ele>29.2</ele>
        <time>2012-03-10T09:59:33Z</time>
      </trkpt>
      <trkpt lat="60.0615681969" lon="23.3997726097">
        <ele>29.8</ele>
        <time>2012-03-10T09:59:39Z</time>
      </trkpt>
      <trkpt lat="60.0614155625" lon="23.3999177842">
        <ele>30.2</ele>
        <time>2012-03-10T09:59:44Z</time>
      </trkpt>
      <trkpt lat="60.0612652751" lon="23.400077627">
        <ele>30.4</ele>
        <time>2012-03-10T09:59:49Z</time>
      </trkpt>
      <trkpt lat="60.0611175022" lon="23.4002075465">
        <ele>30.6</ele>
        <time>2012-03-10T09:59:54Z</time>
      </trkpt>
      <trkpt lat="60.060933268" lon="23.4003414892">
        <ele>31</ele>
        <time>2012-03-10T10:00:00Z</time>
      </trkpt>
      <trkpt lat="60.0607931226" lon="23.4004504539">
        <ele>31.8</ele>
        <time>2012-03-10T10:00:05Z</time>
      </trkpt>
      <trkpt lat="60.0606252332" lon="23.40060971">
        <ele>33</ele>
        <time>2012-03-10T10:00:12Z</time>
      </trkpt>
      <trkpt lat="60.0605319426" lon="23.4007905914">
        <ele>34</ele>
        <time>2012-03-10T10:00:17Z</time>
      </trkpt>
      <trkpt lat="60.0604606965" lon="23.4009978758">
        <ele>35.4</ele>
        <time>2012-03-10T10:00:22Z</time>
      </trkpt>
      <trkpt lat="60.0603702558" lon="23.4012070042">
        <ele>36.4</ele>
        <time>2012-03-10T10:00:27Z</time>
      </trkpt>
      <trkpt lat="60.0602721876" lon="23.4013812639">
        <ele>37.6</ele>
        <time>2012-03-10T10:00:32Z</time>
      </trkpt>
      <trkpt lat="60.0601822498" lon="23.4014867082">
        <ele>39</ele>
        <time>2012-03-10T10:00:36Z</time>
      </trkpt>
      <trkpt lat="60.0600521627" lon="23.4015897218">
        <ele>40.6</ele>
        <time>2012-03-10T10:00:41Z</time>
      </trkpt>
      <trkpt lat="60.0598887994" lon="23.4016997761">
        <ele>42.6</ele>
        <time>2012-03-10T10:00:47Z</time>
      </trkpt>
      <trkpt lat="60.0597106003" lon="23.4018069806">
        <ele>44.4</ele>
        <time>2012-03-10T10:00:53Z</time>
      </trkpt>
      <trkpt lat="60.0595044055" lon="23.4019006903">
        <ele>46</ele>
        <time>2012-03-10T10:00:59Z</time>
      </trkpt>
      <trkpt lat="60.0593324927" lon="23.4019805698">
        <ele>47.2</ele>
        <time>2012-03-10T10:01:04Z</time>
      </trkpt>
      <trkpt lat="60.0591616696" lon="23.40206288">
        <ele>48.4</ele>
        <time>2012-03-10T10:01:09Z</time>
      </trkpt>
      <trkpt lat="60.058957738" lon="23.402140245">
        <ele>49.2</ele>
        <time>2012-03-10T10:01:15Z</time>
      </trkpt>
      <trkpt lat="60.0587792035" lon="23.4021970742">
        <ele>49.6</ele>
        <time>2012-03-10T10:01:21Z</time>
      </trkpt>
      <trkpt lat="60.0586581689" lon="23.4022303504">
        <ele>49.8</ele>
        <time>2012-03-10T10:01:25Z</time>
      </trkpt>
      <trkpt lat="60.058477958" lon="23.4023331125">
        <ele>49.8</ele>
        <time>2012-03-10T10:01:31Z</time>
      </trkpt>
      <trkpt lat="60.0583522295" lon="23.4025233816">
        <ele>50</ele>
        <time>2012-03-10T10:01:36Z</time>
      </trkpt>
      <trkpt lat="60.0582466176" lon="23.4028543828">
        <ele>50</ele>
        <time>2012-03-10T10:01:42Z</time>
      </trkpt>
      <trkpt lat="60.0581239066" lon="23.4031827857">
        <ele>50</ele>
        <time>2012-03-10T10:01:48Z</time>
      </trkpt>
      <trkpt lat="60.0580073982" lon="23.403466513">
        <ele>50</ele>
        <time>2012-03-10T10:01:53Z</time>
      </trkpt>
      <trkpt lat="60.0578695997" lon="23.4037680938">
        <ele>50</ele>
        <time>2012-03-10T10:01:59Z</time>
      </trkpt>
      <trkpt lat="60.057718055" lon="23.4040345544">
        <ele>50</ele>
        <time>2012-03-10T10:02:05Z</time>
      </trkpt>
      <trkpt lat="60.0576068272" lon="23.4042321996">
        <ele>50</ele>
        <time>2012-03-10T10:02:09Z</time>
      </trkpt>
      <trkpt lat="60.0574778297" lon="23.4044305153">
        <ele>50</ele>
        <time>2012-03-10T10:02:13Z</time>
      </trkpt>
      <trkpt lat="60.0573359242" lon="23.4046792901">
        <ele>50</ele>
        <time>2012-03-10T10:02:18Z</time>
      </trkpt>
      <trkpt lat="60.0571922584" lon="23.4048191002">
        <ele>50</ele>
        <time>2012-03-10T10:02:22Z</time>
      </trkpt>
      <trkpt lat="60.0570596567" lon="23.4048910169">
        <ele>50</ele>
        <time>2012-03-10T10:02:25Z</time>
      </trkpt>
      <trkpt lat="60.0569345988" lon="23.4049742492">
        <ele>50</ele>
        <time>2012-03-10T10:02:28Z</time>
      </trkpt>
      <trkpt lat="60.0568984728" lon="23.4050080282">
        <ele>50</ele>
        <time>2012-03-10T10:02:29Z</time>
      </trkpt>
      <trkpt lat="60.0567758456" lon="23.4051324156">
        <ele>50</ele>
        <time>2012-03-10T10:02:32Z</time>
      </trkpt>
      <trkpt lat="60.056628408" lon="23.4053901591">
        <ele>50</ele>
        <time>2012-03-10T10:02:37Z</time>
      </trkpt>
      <trkpt lat="60.0564951358" lon="23.4057511675">
        <ele>50</ele>
        <time>2012-03-10T10:02:43Z</time>
      </trkpt>
      <trkpt lat="60.0564057009" lon="23.406016287">
        <ele>50</ele>
        <time>2012-03-10T10:02:48Z</time>
      </trkpt>
      <trkpt lat="60.0563147573" lon="23.4063159399">
        <ele>50</ele>
        <time>2012-03-10T10:02:53Z</time>
      </trkpt>
      <trkpt lat="60.0562088101" lon="23.4066067918">
        <ele>50</ele>
        <time>2012-03-10T10:02:58Z</time>
      </trkpt>
      <trkpt lat="60.0560997616" lon="23.4069134017">
        <ele>50</ele>
        <time>2012-03-10T10:03:03Z</time>
      </trkpt>
      <trkpt lat="60.0559898748" lon="23.4072373622">
        <ele>50</ele>
        <time>2012-03-10T10:03:08Z</time>
      </trkpt>
      <trkpt lat="60.0559693392" lon="23.40731062">
        <ele>50</ele>
        <time>2012-03-10T10:03:09Z</time>
      </trkpt>
      <trkpt lat="60.0559332132" lon="23.4074431378">
        <ele>50</ele>
        <time>2012-03-10T10:03:11Z</time>
      </trkpt>
      <trkpt lat="60.0558426049" lon="23.4078212453">
        <ele>50</ele>
        <time>2012-03-10T10:03:16Z</time>
      </trkpt>
      <trkpt lat="60.0557799082" lon="23.4082012807">
        <ele>50</ele>
        <time>2012-03-10T10:03:21Z</time>
      </trkpt>
      <trkpt lat="60.0557720293" lon="23.4082713534">
        <ele>50</ele>
        <time>2012-03-10T10:03:22Z</time>
      </trkpt>
      <trkpt lat="60.0557444528" lon="23.4084261671">
        <ele>50</ele>
        <time>2012-03-10T10:03:24Z</time>
      </trkpt>
      <trkpt lat="60.0556962569" lon="23.4087369679">
        <ele>50</ele>
        <time>2012-03-10T10:03:28Z</time>
      </trkpt>
      <trkpt lat="60.0556848575" lon="23.4088145005">
        <ele>50</ele>
        <time>2012-03-10T10:03:29Z</time>
      </trkpt>
      <trkpt lat="60.0556496535" lon="23.4091244631">
        <ele>50</ele>
        <time>2012-03-10T10:03:33Z</time>
      </trkpt>
      <trkpt lat="60.0556124379" lon="23.4095999683">
        <ele>50</ele>
        <time>2012-03-10T10:03:39Z</time>
      </trkpt>
      <trkpt lat="60.0556091689" lon="23.4096727232">
        <ele>50</ele>
        <time>2012-03-10T10:03:40Z</time>
      </trkpt>
      <trkpt lat="60.0555779045" lon="23.4099929956">
        <ele>50</ele>
        <time>2012-03-10T10:03:44Z</time>
      </trkpt>
      <trkpt lat="60.0555685167" lon="23.4103013657">
        <ele>50</ele>
        <time>2012-03-10T10:03:48Z</time>
      </trkpt>
      <trkpt lat="60.0555555248" lon="23.4105967439">
        <ele>49.8</ele>
        <time>2012-03-10T10:03:52Z</time>
      </trkpt>
      <trkpt lat="60.0555150402" lon="23.4109765278">
        <ele>49.2</ele>
        <time>2012-03-10T10:03:57Z</time>
      </trkpt>
      <trkpt lat="60.0554658385" lon="23.4112645298">
        <ele>48.8</ele>
        <time>2012-03-10T10:04:01Z</time>
      </trkpt>
      <trkpt lat="60.0554105179" lon="23.4115008994">
        <ele>48.6</ele>
        <time>2012-03-10T10:04:05Z</time>
      </trkpt>
      <trkpt lat="60.0553170597" lon="23.4118088504">
        <ele>48</ele>
        <time>2012-03-10T10:04:11Z</time>
      </trkpt>
      <trkpt lat="60.0552168122" lon="23.4119789192">
        <ele>47.2</ele>
        <time>2012-03-10T10:04:15Z</time>
      </trkpt>
      <trkpt lat="60.0550721406" lon="23.4121801686">
        <ele>46.8</ele>
        <time>2012-03-10T10:04:20Z</time>
      </trkpt>
      <trkpt lat="60.0549842983" lon="23.4124057255">
        <ele>46.2</ele>
        <time>2012-03-10T10:04:24Z</time>
      </trkpt>
      <trkpt lat="60.0548983838" lon="23.4126693363">
        <ele>45.4</ele>
        <time>2012-03-10T10:04:28Z</time>
      </trkpt>
      <trkpt lat="60.0548254613" lon="23.4128838291">
        <ele>44.2</ele>
        <time>2012-03-10T10:04:32Z</time>
      </trkpt>
      <trkpt lat="60.0546579909" lon="23.4132127349">
        <ele>42.8</ele>
        <time>2012-03-10T10:04:38Z</time>
      </trkpt>
      <trkpt lat="60.0544797917" lon="23.4134503617">
        <ele>41.4</ele>
        <time>2012-03-10T10:04:44Z</time>
      </trkpt>
      <trkpt lat="60.0543740122" lon="23.413615569">
        <ele>40.8</ele>
        <time>2012-03-10T10:04:48Z</time>
      </trkpt>
      <trkpt lat="60.0542505468" lon="23.4139131264">
        <ele>40.2</ele>
        <time>2012-03-10T10:04:53Z</time>
      </trkpt>
      <trkpt lat="60.0541815637" lon="23.4141868793">
        <ele>40</ele>
        <time>2012-03-10T10:04:57Z</time>
      </trkpt>
      <trkpt lat="60.0541302665" lon="23.4144870351">
        <ele>39.4</ele>
        <time>2012-03-10T10:05:01Z</time>
      </trkpt>
      <trkpt lat="60.0540463637" lon="23.4148410866">
        <ele>38.6</ele>
        <time>2012-03-10T10:05:06Z</time>
      </trkpt>
      <trkpt lat="60.0539909593" lon="23.4150843293">
        <ele>38.2</ele>
        <time>2012-03-10T10:05:10Z</time>
      </trkpt>
      <trkpt lat="60.0538937293" lon="23.4153791207">
        <ele>38</ele>
        <time>2012-03-10T10:05:15Z</time>
      </trkpt>
      <trkpt lat="60.0537925598" lon="23.4156841381">
        <ele>37.8</ele>
        <time>2012-03-10T10:05:20Z</time>
      </trkpt>
      <trkpt lat="60.0536979281" lon="23.4159086054">
        <ele>37.8</ele>
        <time>2012-03-10T10:05:24Z</time>
      </trkpt>
      <trkpt lat="60.0535556873" lon="23.4161684443">
        <ele>37.6</ele>
        <time>2012-03-10T10:05:29Z</time>
      </trkpt>
      <trkpt lat="60.0533758955" lon="23.4163608089">
        <ele>37.6</ele>
        <time>2012-03-10T10:05:34Z</time>
      </trkpt>
      <trkpt lat="60.0531992889" lon="23.416516796">
        <ele>37.6</ele>
        <time>2012-03-10T10:05:39Z</time>
      </trkpt>
      <trkpt lat="60.0530324891" lon="23.4166903014">
        <ele>37.6</ele>
        <time>2012-03-10T10:05:44Z</time>
      </trkpt>
      <trkpt lat="60.0528609954" lon="23.4169011061">
        <ele>37.6</ele>
        <time>2012-03-10T10:05:49Z</time>
      </trkpt>
      <trkpt lat="60.0526951176" lon="23.4171098993">
        <ele>37.6</ele>
        <time>2012-03-10T10:05:54Z</time>
      </trkpt>
      <trkpt lat="60.052537957" lon="23.4173038564">
        <ele>37.6</ele>
        <time>2012-03-10T10:05:59Z</time>
      </trkpt>
      <trkpt lat="60.052419856" lon="23.4174423254">
        <ele>37.6</ele>
        <time>2012-03-10T10:06:03Z</time>
      </trkpt>
      <trkpt lat="60.0521922874" lon="23.4176517891">
        <ele>37.6</ele>
        <time>2012-03-10T10:06:10Z</time>
      </trkpt>
      <trkpt lat="60.0520603563" lon="23.4177340155">
        <ele>37.6</ele>
        <time>2012-03-10T10:06:13Z</time>
      </trkpt>
      <trkpt lat="60.0518090669" lon="23.4178178345">
        <ele>37.6</ele>
        <time>2012-03-10T10:06:18Z</time>
      </trkpt>
      <trkpt lat="60.0517690853" lon="23.4178434832">
        <ele>37.6</ele>
        <time>2012-03-10T10:06:19Z</time>
      </trkpt>
      <trkpt lat="60.0517319535" lon="23.4178947804">
        <ele>37.6</ele>
        <time>2012-03-10T10:06:21Z</time>
      </trkpt>
    </trkseg>
  </trk>
</gpx>